Time;durP1;ratioP1;P1;durP2;ratioP2;P2;SDS_P1;SDS_P2;PMS_P1;PMS_P2;Temp;Humidity;BMP_temperature;BMP_pressure;BME280_temperature;BME280_humidity;BME280_pressure;Samples;Min_cycle;Max_cycle;Signal;HPM_P1;HPM_P2
2022/07/02 00:00:42;;;;;;;15.10;5.53;;;;;;;;;;5076153;28;20120;-68
2022/07/02 00:03:10;;;;;;;25.95;5.72;;;15.80;97.80;;;;;;5063295;28;20033;-68
2022/07/02 00:05:44;;;;;;;18.98;6.00;;;16.20;98.00;;;;;;5080862;28;20530;-68
2022/07/02 00:08:11;;;;;;;16.80;6.10;;;15.80;99.90;;;;;;5068932;28;20047;-69
2022/07/02 00:10:37;;;;;;;18.05;6.03;;;15.90;97.70;;;;;;5073414;28;20103;-69
2022/07/02 00:13:03;;;;;;;17.15;5.47;;;;;;;;;;5064870;28;20029;-69
2022/07/02 00:15:29;;;;;;;17.10;5.07;;;16.70;99.90;;;;;;5055171;28;20074;-69
2022/07/02 00:17:55;;;;;;;20.88;5.30;;;16.30;99.90;;;;;;5064556;28;20043;-69
2022/07/02 00:20:21;;;;;;;18.92;4.95;;;;;;;;;;5073095;28;20042;-69
2022/07/02 00:22:49;;;;;;;14.15;4.95;;;15.90;98.30;;;;;;5066490;28;20073;-69
2022/07/02 00:25:15;;;;;;;21.73;4.72;;;;;;;;;;5054918;28;20104;-69
2022/07/02 00:27:42;;;;;;;16.80;4.18;;;16.50;99.90;;;;;;5065364;28;20039;-69
2022/07/02 00:30:08;;;;;;;12.80;4.07;;;;;;;;;;5069650;28;20095;-69
2022/07/02 00:32:36;;;;;;;16.95;4.35;;;15.80;98.50;;;;;;5085985;28;20044;-69
2022/07/02 00:35:13;;;;;;;19.83;5.28;;;15.70;99.90;;;;;;5061719;28;20044;-69
2022/07/02 00:37:39;;;;;;;14.75;4.47;;;16.00;99.90;;;;;;5059813;28;20429;-69
2022/07/02 00:40:08;;;;;;;25.00;4.70;;;16.30;99.90;;;;;;5072760;28;20075;-69
2022/07/02 00:42:37;;;;;;;17.48;4.03;;;14.40;99.90;;;;;;5059211;28;20098;-69
2022/07/02 00:45:05;;;;;;;10.23;3.85;;;15.40;98.70;;;;;;5059706;28;20397;-69
2022/07/02 00:47:31;;;;;;;17.73;4.22;;;;;;;;;;5057063;28;20551;-69
2022/07/02 00:49:57;;;;;;;14.10;3.38;;;;;;;;;;5070798;28;20040;-69
2022/07/02 00:52:23;;;;;;;11.73;3.83;;;16.30;99.90;;;;;;5059358;28;20068;-69
2022/07/02 00:54:49;;;;;;;19.27;3.78;;;;;;;;;;5066879;28;20069;-69
2022/07/02 00:57:15;;;;;;;19.60;4.55;;;;;;;;;;5072406;28;20043;-69
2022/07/02 00:59:43;;;;;;;14.73;3.70;;;;;;;;;;5055011;28;20089;-69
2022/07/02 01:02:09;;;;;;;14.32;3.80;;;15.40;99.90;;;;;;5057454;28;20059;-69
2022/07/02 01:04:35;;;;;;;22.23;4.05;;;14.30;99.90;;;;;;5049227;28;20047;-69
2022/07/02 01:07:03;;;;;;;16.55;3.75;;;16.20;99.00;;;;;;5065969;28;20033;-69
2022/07/02 01:12:23;;;;;;;15.73;3.55;;;16.40;99.90;;;;;;5070246;28;20044;-69
2022/07/02 01:14:49;;;;;;;23.83;5.93;;;;;;;;;;5068452;28;20132;-69
2022/07/02 01:17:15;;;;;;;12.75;3.33;;;15.90;99.90;;;;;;5072074;28;20043;-69
2022/07/02 01:19:41;;;;;;;14.00;3.58;;;;;;;;;;5058646;28;20389;-69
2022/07/02 01:22:15;;;;;;;14.52;3.00;;;14.50;98.20;;;;;;5064524;28;20033;-69
2022/07/02 01:24:42;;;;;;;14.05;3.30;;;15.00;99.10;;;;;;5067455;28;20067;-69
2022/07/02 01:27:08;;;;;;;13.70;3.90;;;13.90;99.90;;;;;;5072003;28;20037;-69
2022/07/02 01:29:34;;;;;;;15.70;3.80;;;15.50;99.90;;;;;;5058623;28;20048;-69
2022/07/02 01:32:00;;;;;;;12.43;4.05;;;;;;;;;;5054838;28;20490;-69
2022/07/02 01:34:27;;;;;;;13.98;3.67;;;15.00;99.30;;;;;;5076030;28;20049;-69
2022/07/02 01:36:53;;;;;;;11.05;3.67;;;16.10;99.90;;;;;;5058994;28;20078;-69
2022/07/02 01:39:25;;;;;;;17.08;4.00;;;14.20;99.90;;;;;;5067241;28;20048;-68
2022/07/02 01:41:52;;;;;;;14.48;3.92;;;;;;;;;;5070279;28;20440;-68
2022/07/02 01:44:18;;;;;;;13.77;3.85;;;;;;;;;;5061306;28;20045;-68
2022/07/02 01:46:47;;;;;;;11.65;3.78;;;14.90;99.30;;;;;;5058016;28;20094;-68
2022/07/02 01:49:13;;;;;;;16.08;3.60;;;14.10;99.90;;;;;;5063283;28;20033;-68
2022/07/02 01:51:39;;;;;;;16.63;4.18;;;15.30;99.90;;;;;;5063053;28;20062;-68
2022/07/02 01:54:07;;;;;;;12.20;4.00;;;;;;;;;;5064907;28;20072;-69
2022/07/02 01:56:36;;;;;;;18.60;4.45;;;14.70;99.50;;;;;;5059088;28;20055;-69
2022/07/02 01:59:02;;;;;;;12.93;4.07;;;14.40;99.90;;;;;;5069499;28;20051;-69
2022/07/02 02:01:28;;;;;;;11.32;4.28;;;;;;;;;;5056259;28;20446;-69
2022/07/02 02:03:54;;;;;;;14.98;4.38;;;15.20;99.90;;;;;;5069487;28;20409;-69
2022/07/02 02:06:20;;;;;;;14.63;4.28;;;13.70;99.90;;;;;;5062491;28;20044;-69
2022/07/02 02:08:46;;;;;;;12.77;4.00;;;;;;;;;;5056241;28;20051;-69
2022/07/02 02:11:12;;;;;;;10.60;4.95;;;;;;;;;;5053875;28;20409;-69
2022/07/02 02:13:38;;;;;;;15.77;4.57;;;13.50;99.90;;;;;;5056948;28;20036;-69
2022/07/02 02:16:03;;;;;;;15.57;4.82;;;15.60;99.90;;;;;;5058811;28;20487;-69
2022/07/02 02:18:30;;;;;;;8.95;4.53;;;;;;;;;;5067651;28;20041;-69
2022/07/02 02:20:56;;;;;;;11.73;3.70;;;;;;;;;;5054126;28;20116;-69
2022/07/02 02:23:22;;;;;;;15.20;3.95;;;;;;;;;;5040494;28;20041;-69
2022/07/02 02:25:47;;;;;;;19.48;4.90;;;14.80;99.90;;;;;;5053822;28;20432;-69
2022/07/02 02:28:13;;;;;;;13.75;4.18;;;;;;;;;;5036094;28;20040;-69
2022/07/02 02:30:39;;;;;;;17.83;4.75;;;13.60;99.90;;;;;;5069077;28;20029;-69
2022/07/02 02:33:05;;;;;;;12.07;4.80;;;14.10;99.90;;;;;;5046360;28;20051;-69
2022/07/02 02:35:31;;;;;;;13.68;4.85;;;;;;;;;;5057022;28;20037;-69
2022/07/02 02:37:57;;;;;;;12.65;4.45;;;;;;;;;;5052350;28;20041;-69
2022/07/02 02:40:23;;;;;;;19.25;4.25;;;13.40;99.90;;;;;;5062887;28;20047;-69
2022/07/02 02:42:49;;;;;;;12.75;4.63;;;;;;;;;;5070673;28;20045;-69
2022/07/02 02:45:15;;;;;;;14.60;4.63;;;;;;;;;;5058738;28;20349;-69
2022/07/02 02:47:41;;;;;;;13.88;4.35;;;;;;;;;;5063579;28;20037;-69
2022/07/02 02:50:07;;;;;;;14.77;4.78;;;15.40;99.90;;;;;;5059753;28;20040;-69
2022/07/02 02:52:33;;;;;;;10.32;5.30;;;;;;;;;;5052317;28;20041;-69
2022/07/02 02:55:00;;;;;;;15.40;5.35;;;;;;;;;;5060110;28;20033;-69
2022/07/02 02:57:27;;;;;;;12.93;5.82;;;;;;;;;;5068594;28;20051;-68
2022/07/02 02:59:53;;;;;;;15.80;5.65;;;13.30;99.90;;;;;;5061869;28;20055;-69
2022/07/02 03:02:19;;;;;;;14.57;5.80;;;;;;;;;;5061487;28;20040;-69
2022/07/02 03:04:45;;;;;;;15.48;6.10;;;;;;;;;;5058691;28;20086;-69
2022/07/02 03:07:11;;;;;;;18.38;5.40;;;;;;;;;;5069279;28;20040;-68
2022/07/02 03:09:37;;;;;;;14.65;6.00;;;;;;;;;;5063389;28;20041;-69
2022/07/02 03:12:04;;;;;;;16.50;5.65;;;;;;;;;;5058837;28;20036;-68
2022/07/02 03:14:29;;;;;;;15.40;6.18;;;14.80;99.90;;;;;;5054246;28;20648;-68
2022/07/02 03:16:55;;;;;;;15.10;6.57;;;;;;;;;;5067897;28;20074;-68
2022/07/02 03:19:21;;;;;;;15.32;6.30;;;;;;;;;;5058360;28;20079;-68
2022/07/02 03:21:47;;;;;;;14.93;6.25;;;;;;;;;;5064122;28;20037;-68
2022/07/02 03:24:15;;;;;;;19.05;7.05;;;;;;;;;;5051795;28;20041;-69
2022/07/02 03:26:41;;;;;;;17.75;6.53;;;;;;;;;;5069093;28;20407;-69
2022/07/02 03:29:07;;;;;;;15.95;6.13;;;;;;;;;;5068554;28;20046;-69
2022/07/02 03:31:33;;;;;;;15.82;6.20;;;;;;;;;;5065946;28;20390;-69
2022/07/02 03:33:59;;;;;;;17.20;6.60;;;;;;;;;;5069941;28;20041;-69
2022/07/02 03:36:25;;;;;;;17.50;7.00;;;;;;;;;;5040994;28;20045;-69
2022/07/02 03:38:51;;;;;;;17.58;7.45;;;14.40;99.90;;;;;;5066375;28;20067;-69
2022/07/02 03:41:17;;;;;;;15.60;7.20;;;14.00;99.90;;;;;;5063218;28;20049;-70
2022/07/02 03:43:43;;;;;;;19.27;8.02;;;;;;;;;;5063646;28;20077;-69
2022/07/02 03:46:09;;;;;;;19.60;6.75;;;;;;;;;;5058664;28;20037;-69
2022/07/02 03:48:35;;;;;;;17.27;7.53;;;13.70;99.90;;;;;;5068505;28;20473;-69
2022/07/02 03:51:01;;;;;;;22.98;7.05;;;;;;;;;;5064843;28;20040;-69
2022/07/02 03:53:27;;;;;;;19.75;6.60;;;13.40;99.90;;;;;;5051829;28;20041;-69
2022/07/02 03:55:53;;;;;;;20.70;7.90;;;;;;;;;;5058273;28;20584;-68
2022/07/02 03:58:19;;;;;;;17.33;7.47;;;;;;;;;;5051316;28;20491;-68
2022/07/02 04:00:45;;;;;;;19.02;7.22;;;;;;;;;;5067033;28;20110;-68
2022/07/02 04:03:11;;;;;;;17.77;7.05;;;;;;;;;;5067652;28;20049;-68
2022/07/02 04:05:37;;;;;;;20.27;7.32;;;13.10;99.90;;;;;;5038317;28;20040;-68
2022/07/02 04:08:03;;;;;;;17.45;7.35;;;;;;;;;;5051733;28;20083;-68
2022/07/02 04:10:29;;;;;;;20.73;7.88;;;;;;;;;;5055211;28;20059;-68
2022/07/02 04:12:54;;;;;;;22.50;7.80;;;14.70;99.90;;;;;;5053949;28;20580;-68
2022/07/02 04:15:20;;;;;;;21.23;8.20;;;;;;;;;;5056428;28;20136;-68
2022/07/02 04:17:46;;;;;;;22.00;8.52;;;;;;;;;;5062597;28;20049;-68
2022/07/02 04:20:13;;;;;;;23.15;8.07;;;;;;;;;;5056231;28;20052;-68
2022/07/02 04:22:38;;;;;;;23.27;8.20;;;14.90;99.90;;;;;;5066170;28;20040;-68
2022/07/02 04:25:05;;;;;;;13.02;6.78;;;15.40;99.90;;;;;;5062125;28;20047;-68
2022/07/02 04:27:30;;;;;;;19.15;7.78;;;13.50;99.90;;;;;;5060816;28;20099;-68
2022/07/02 04:29:56;;;;;;;23.85;8.10;;;15.00;99.90;;;;;;5060691;28;20037;-68
2022/07/02 04:32:22;;;;;;;21.30;8.00;;;;;;;;;;5062838;28;20039;-68
2022/07/02 04:34:48;;;;;;;20.00;7.30;;;;;;;;;;5064504;28;20055;-68
2022/07/02 04:37:14;;;;;;;23.10;8.05;;;;;;;;;;5045088;28;20381;-68
2022/07/02 04:39:41;;;;;;;19.08;8.63;;;;;;;;;;5066039;28;20045;-68
2022/07/02 04:42:06;;;;;;;24.25;8.63;;;14.80;99.90;;;;;;5067331;28;20040;-68
2022/07/02 04:44:33;;;;;;;20.73;8.35;;;14.00;99.90;;;;;;5061477;28;20121;-69
2022/07/02 04:46:59;;;;;;;24.48;8.00;;;;;;;;;;5067082;28;20401;-69
2022/07/02 04:49:25;;;;;;;18.75;7.50;;;;;;;;;;5054627;28;20049;-69
2022/07/02 04:51:51;;;;;;;21.83;7.75;;;;;;;;;;5060521;28;20040;-69
2022/07/02 04:54:17;;;;;;;24.35;7.85;;;;;;;;;;5066742;28;20079;-69
2022/07/02 04:56:43;;;;;;;27.33;8.88;;;;;;;;;;5060131;28;20110;-69
2022/07/02 04:59:09;;;;;;;22.08;7.63;;;;;;;;;;5072273;28;20056;-69
2022/07/02 05:01:36;;;;;;;16.75;7.38;;;;;;;;;;5067930;28;20049;-69
2022/07/02 05:04:02;;;;;;;26.10;8.07;;;;;;;;;;5055345;28;20087;-69
2022/07/02 05:06:28;;;;;;;13.90;7.30;;;;;;;;;;5063374;28;20041;-69
2022/07/02 05:08:54;;;;;;;22.33;8.40;;;;;;;;;;5054491;28;20045;-69
2022/07/02 05:11:20;;;;;;;20.38;7.70;;;;;;;;;;5071340;28;20032;-68
2022/07/02 05:13:46;;;;;;;16.05;7.30;;;14.80;99.90;;;;;;5062349;28;20036;-69
2022/07/02 05:16:13;;;;;;;17.55;6.35;;;;;;;;;;5073380;28;20041;-69
2022/07/02 05:18:39;;;;;;;17.92;7.00;;;;;;;;;;5054851;28;20068;-68
2022/07/02 05:21:05;;;;;;;18.25;6.72;;;16.00;99.90;;;;;;5053900;28;20037;-69
2022/07/02 05:23:31;;;;;;;22.35;6.50;;;;;;;;;;5066772;28;20036;-69
2022/07/02 05:26:00;;;;;;;16.98;6.95;;;16.10;99.90;;;;;;5056505;28;20048;-69
2022/07/02 05:28:26;;;;;;;16.33;7.38;;;16.10;99.90;;;;;;5057109;28;20055;-69
2022/07/02 05:30:52;;;;;;;20.60;7.63;;;;;;;;;;5059482;28;20032;-69
2022/07/02 05:33:18;;;;;;;16.65;6.07;;;;;;;;;;5065840;28;20047;-69
2022/07/02 05:35:44;;;;;;;16.00;5.68;;;15.20;99.90;;;;;;5072057;28;20063;-68
2022/07/02 05:38:11;;;;;;;26.95;6.50;;;;;;;;;;5061131;28;20060;-69
2022/07/02 05:40:36;;;;;;;15.18;5.82;;;16.00;99.90;;;;;;5061124;28;20041;-69
2022/07/02 05:43:02;;;;;;;19.83;5.72;;;;;;;;;;5055791;28;20091;-69
2022/07/02 05:45:28;;;;;;;22.00;6.85;;;15.30;99.90;;;;;;5057078;28;20067;-69
2022/07/02 05:47:54;;;;;;;13.93;6.05;;;;;;;;;;5063631;28;20037;-69
2022/07/02 05:50:21;;;;;;;17.55;5.93;;;;;;;;;;5054721;28;20131;-69
2022/07/02 05:52:47;;;;;;;15.85;6.03;;;;;;;;;;5059483;28;20123;-69
2022/07/02 05:55:14;;;;;;;16.73;5.70;;;;;;;;;;5064305;28;20114;-69
2022/07/02 05:57:40;;;;;;;17.48;5.68;;;;;;;;;;5038521;28;20072;-69
2022/07/02 06:00:07;;;;;;;14.88;5.47;;;16.40;99.90;;;;;;5060682;28;20106;-69
2022/07/02 06:02:33;;;;;;;18.30;5.85;;;16.10;99.90;;;;;;5059168;28;20400;-68
2022/07/02 06:07:38;;;;;;;14.52;4.90;;;16.50;99.90;;;;;;5053119;28;20028;-68
2022/07/02 06:07:45;;;;;;;13.52;4.30;;;16.00;99.90;;;;;;5051428;28;20094;-69
2022/07/02 06:10:17;;;;;;;16.92;3.60;;;;;;;;;;5064721;28;20041;-69
2022/07/02 06:12:47;;;;;;;9.43;2.67;;;17.10;99.90;;;;;;5062146;28;20049;-69
2022/07/02 06:15:13;;;;;;;14.00;3.20;;;;;;;;;;5053162;28;20136;-69
2022/07/02 06:17:39;;;;;;;13.15;3.22;;;;;;;;;;5068541;28;20044;-68
2022/07/02 06:20:06;;;;;;;12.25;3.38;;;15.40;99.90;;;;;;5062277;28;20386;-69
2022/07/02 06:22:31;;;;;;;14.50;3.30;;;15.50;99.90;;;;;;5053644;28;20473;-69
2022/07/02 06:24:57;;;;;;;9.98;3.10;;;;;;;;;;5057599;28;20128;-69
2022/07/02 06:27:23;;;;;;;15.95;3.53;;;;;;;;;;5068279;28;20041;-69
2022/07/02 06:29:49;;;;;;;12.15;3.65;;;;;;;;;;5042425;28;20036;-69
2022/07/02 06:32:16;;;;;;;12.55;3.50;;;;;;;;;;5053151;28;20029;-69
2022/07/02 06:34:43;;;;;;;15.20;3.80;;;;;;;;;;5062901;28;20043;-69
2022/07/02 06:37:09;;;;;;;16.98;4.28;;;16.30;99.90;;;;;;5065062;28;20119;-69
2022/07/02 06:39:35;;;;;;;13.27;3.25;;;;;;;;;;5067636;28;20052;-69
2022/07/02 06:42:19;;;;;;;18.17;3.58;;;15.80;99.90;;;;;;5070382;28;20044;-68
2022/07/02 06:44:46;;;;;;;16.20;4.28;;;16.40;99.90;;;;;;5054666;28;20056;-69
2022/07/02 06:47:16;;;;;;;20.58;3.70;;;17.30;99.90;;;;;;5059329;28;20033;-69
2022/07/02 06:49:42;;;;;;;15.40;3.75;;;;;;;;;;5067112;28;20044;-69
2022/07/02 06:52:08;;;;;;;23.20;3.90;;;;;;;;;;5070282;28;20036;-69
2022/07/02 06:54:35;;;;;;;12.07;3.58;;;17.30;99.90;;;;;;5056326;28;20045;-69
2022/07/02 06:57:01;;;;;;;14.95;3.22;;;16.40;99.90;;;;;;5060074;28;20037;-69
2022/07/02 06:59:27;;;;;;;18.15;3.80;;;16.80;99.90;;;;;;5062568;28;20167;-68
2022/07/02 07:01:53;;;;;;;11.75;3.28;;;17.80;99.90;;;;;;5057214;28;20186;-71
2022/07/02 07:04:18;;;;;;;18.48;3.85;;;17.70;99.90;;;;;;5062441;28;20481;-72
2022/07/02 07:09:19;;;;;;;18.05;3.58;;;16.50;99.90;;;;;;5063532;28;20040;-69
2022/07/02 07:11:45;;;;;;;17.88;4.65;;;17.30;99.90;;;;;;5083866;28;20041;-69
2022/07/02 07:14:11;;;;;;;17.55;3.20;;;;;;;;;;5044440;28;20412;-69
2022/07/02 07:16:37;;;;;;;12.60;3.30;;;16.70;99.90;;;;;;5051795;28;20048;-69
2022/07/02 07:19:06;;;;;;;11.75;2.92;;;16.90;99.90;;;;;;5061964;28;20555;-69
2022/07/02 07:21:32;;;;;;;14.48;4.03;;;;;;;;;;5056596;28;20036;-69
2022/07/02 07:23:58;;;;;;;12.23;3.10;;;;;;;;;;5046378;28;20430;-69
2022/07/02 07:26:25;;;;;;;14.40;3.00;;;;;;;;;;5069874;28;20037;-69
2022/07/02 07:28:51;;;;;;;19.42;3.08;;;17.40;99.90;;;;;;5064764;28;20087;-69
2022/07/02 07:31:20;;;;;;;10.80;3.13;;;18.40;99.90;;;;;;5057028;28;20040;-69
2022/07/02 07:33:46;;;;;;;17.42;3.25;;;17.60;98.60;;;;;;5059526;28;20078;-69
2022/07/02 07:36:12;;;;;;;19.10;3.40;;;;;;;;;;5060566;28;20048;-69
2022/07/02 07:38:39;;;;;;;18.92;3.92;;;;;;;;;;5068802;28;20052;-69
2022/07/02 07:41:05;;;;;;;19.70;3.30;;;;;;;;;;5052872;28;20366;-70
2022/07/02 07:43:31;;;;;;;15.18;3.05;;;17.60;99.90;;;;;;5054526;28;20072;-70
2022/07/02 07:45:57;;;;;;;12.55;2.90;;;;;;;;;;5068970;28;20060;-69
2022/07/02 07:48:22;;;;;;;13.57;3.05;;;19.00;99.90;;;;;;5069643;28;20036;-69
2022/07/02 07:50:48;;;;;;;14.10;2.83;;;18.60;99.90;;;;;;5052176;28;20489;-70
2022/07/02 07:53:14;;;;;;;14.65;2.55;;;19.20;99.90;;;;;;5059708;28;20037;-70
2022/07/02 07:55:40;;;;;;;19.65;3.25;;;18.90;99.90;;;;;;5070108;28;20056;-69
2022/07/02 07:58:06;;;;;;;11.48;2.67;;;18.90;99.90;;;;;;5056779;28;20037;-69
2022/07/02 08:00:32;;;;;;;16.33;2.70;;;;;;;;;;5058909;28;20088;-69
2022/07/02 08:02:59;;;;;;;12.77;2.90;;;;;;;;;;5072165;28;20036;-69
2022/07/02 08:05:25;;;;;;;13.27;2.70;;;;;;;;;;5065823;28;20121;-69
2022/07/02 08:07:50;;;;;;;10.82;3.03;;;18.90;99.90;;;;;;5055663;28;20033;-69
2022/07/02 08:10:16;;;;;;;13.65;2.40;;;17.20;99.90;;;;;;5061699;28;20627;-69
2022/07/02 08:12:42;;;;;;;11.68;2.70;;;17.50;99.90;;;;;;5040148;28;20075;-69
2022/07/02 08:15:09;;;;;;;16.52;2.90;;;18.70;99.90;;;;;;5056614;28;20037;-69
2022/07/02 08:17:36;;;;;;;12.95;2.72;;;18.30;99.90;;;;;;5059541;28;20122;-69
2022/07/02 08:20:04;;;;;;;9.10;2.75;;;18.30;97.60;;;;;;5065264;28;20041;-69
2022/07/02 08:22:30;;;;;;;14.80;2.45;;;;;;;;;;5057581;28;20040;-69
2022/07/02 08:24:56;;;;;;;7.78;2.22;;;;;;;;;;5066684;28;20037;-69
2022/07/02 08:27:22;;;;;;;11.90;2.05;;;18.40;99.90;;;;;;5073082;28;20040;-69
2022/07/02 08:29:48;;;;;;;8.88;2.50;;;17.90;99.90;;;;;;5067060;28;20037;-69
2022/07/02 08:32:13;;;;;;;11.63;2.63;;;17.80;99.90;;;;;;5057557;28;20061;-69
2022/07/02 08:34:39;;;;;;;12.68;2.30;;;;;;;;;;5064752;28;20049;-69
2022/07/02 08:37:06;;;;;;;11.70;2.30;;;18.90;96.40;;;;;;5055918;28;20041;-69
2022/07/02 08:39:31;;;;;;;16.15;2.60;;;19.70;99.90;;;;;;5055913;28;20080;-69
2022/07/02 08:41:59;;;;;;;13.30;2.30;;;19.50;99.90;;;;;;5071846;28;20067;-69
2022/07/02 08:44:26;;;;;;;8.45;2.10;;;18.10;99.60;;;;;;5061174;28;20362;-69
2022/07/02 08:46:52;;;;;;;10.38;2.15;;;19.20;99.90;;;;;;5073872;28;20028;-69
2022/07/02 08:49:19;;;;;;;16.52;2.70;;;18.60;96.00;;;;;;5068672;28;20041;-69
2022/07/02 08:52:12;;;;;;;10.02;2.42;;;18.50;96.20;;;;;;5063575;28;20060;-69
2022/07/02 08:54:37;;;;;;;10.05;2.33;;;19.40;99.90;;;;;;5069043;28;20048;-69
2022/07/02 08:57:04;;;;;;;9.93;1.90;;;;;;;;;;5055902;28;20059;-69
2022/07/02 08:59:30;;;;;;;13.40;2.58;;;;;;;;;;5067237;28;20063;-69
2022/07/02 09:01:57;;;;;;;9.02;2.50;;;19.40;99.90;;;;;;5067632;28;20041;-69
2022/07/02 09:04:24;;;;;;;10.93;2.47;;;19.60;99.70;;;;;;5068755;28;20045;-69
2022/07/02 09:06:57;;;;;;;11.40;2.35;;;19.00;99.20;;;;;;5053385;28;20048;-69
2022/07/02 09:09:25;;;;;;;10.32;2.67;;;19.30;94.70;;;;;;5059520;28;20036;-69
2022/07/02 09:11:51;;;;;;;11.45;2.15;;;;;;;;;;5047735;28;20571;-71
2022/07/02 09:14:18;;;;;;;12.00;2.00;;;19.50;98.60;;;;;;5055714;28;20041;-69
2022/07/02 09:16:44;;;;;;;12.52;2.15;;;19.60;98.30;;;;;;5055354;28;20033;-69
2022/07/02 09:19:10;;;;;;;10.15;1.95;;;19.50;98.40;;;;;;5072072;28;20051;-69
2022/07/02 09:21:52;;;;;;;12.13;2.33;;;18.70;98.30;;;;;;5054927;28;20456;-69
2022/07/02 09:24:47;;;;;;;8.80;2.20;;;19.20;98.40;;;;;;5054302;28;20082;-69
2022/07/02 09:27:15;;;;;;;8.27;2.10;;;20.00;98.40;;;;;;5060508;28;20080;-69
2022/07/02 09:29:54;;;;;;;11.30;2.40;;;19.80;98.30;;;;;;5056661;28;20040;-70
2022/07/02 09:32:21;;;;;;;11.02;2.13;;;19.80;98.00;;;;;;5055809;28;20041;-69
2022/07/02 09:34:51;;;;;;;9.18;2.60;;;19.30;94.00;;;;;;5056942;28;20068;-69
2022/07/02 09:37:17;;;;;;;10.15;2.28;;;;;;;;;;5061090;28;20043;-69
2022/07/02 09:39:44;;;;;;;8.32;2.28;;;;;;;;;;5055974;28;20120;-69
2022/07/02 09:42:11;;;;;;;8.82;2.45;;;19.30;93.90;;;;;;5069966;28;20059;-69
2022/07/02 09:44:46;;;;;;;7.95;3.28;;;19.80;97.70;;;;;;5071512;28;20302;-69
2022/07/02 09:47:12;;;;;;;9.82;2.72;;;;;;;;;;5064349;28;20054;-69
2022/07/02 09:49:48;;;;;;;6.18;2.60;;;18.60;97.20;;;;;;5070568;28;20033;-69
2022/07/02 09:52:17;;;;;;;11.68;2.70;;;19.40;93.70;;;;;;5044975;28;20127;-69
2022/07/02 09:54:44;;;;;;;14.55;2.60;;;20.00;98.00;;;;;;5050267;28;20043;-69
2022/07/02 09:57:12;;;;;;;6.28;2.40;;;19.90;94.00;;;;;;5054606;28;20072;-69
2022/07/02 09:59:39;;;;;;;12.30;2.30;;;19.80;93.50;;;;;;5053030;28;20057;-69
2022/07/02 10:02:17;;;;;;;15.23;2.20;;;19.50;96.60;;;;;;5037098;28;20033;-69
2022/07/02 10:04:44;;;;;;;9.52;2.30;;;19.70;92.70;;;;;;5060245;28;20049;-69
2022/07/02 10:07:12;;;;;;;5.70;2.08;;;20.20;94.40;;;;;;5051667;28;20121;-69
2022/07/02 10:09:39;;;;;;;8.35;2.03;;;;;;;;;;5065206;28;20394;-69
2022/07/02 10:12:07;;;;;;;8.50;2.35;;;20.10;92.20;;;;;;5053126;28;20087;-69
2022/07/02 10:14:35;;;;;;;11.95;2.30;;;20.20;92.30;;;;;;5053210;28;20478;-69
2022/07/02 10:17:02;;;;;;;8.68;2.60;;;20.40;95.50;;;;;;5069278;28;20036;-69
2022/07/02 10:19:29;;;;;;;9.57;2.35;;;20.30;92.10;;;;;;5073107;28;20440;-68
2022/07/02 10:21:56;;;;;;;6.47;2.00;;;19.20;95.10;;;;;;5068009;28;20037;-69
2022/07/02 10:24:23;;;;;;;7.85;2.45;;;20.30;91.90;;;;;;5065210;28;20040;-69
2022/07/02 10:26:50;;;;;;;10.30;2.28;;;20.90;95.40;;;;;;5058519;28;20064;-68
2022/07/02 10:29:17;;;;;;;10.52;2.42;;;20.20;95.20;;;;;;5053248;28;20041;-68
2022/07/02 10:31:52;;;;;;;7.47;1.90;;;20.10;91.50;;;;;;5076143;28;20084;-68
2022/07/02 10:34:50;;;;;;;8.50;2.30;;;21.00;95.40;;;;;;5062053;28;20119;-69
2022/07/02 10:37:16;;;;;;;9.95;2.13;;;;;;;;;;5063232;28;20051;-69
2022/07/02 10:39:43;;;;;;;6.72;2.13;;;20.40;94.60;;;;;;5072900;28;20040;-69
2022/07/02 10:42:09;;;;;;;9.13;2.42;;;20.50;94.90;;;;;;5059405;28;20041;-69
2022/07/02 10:44:39;;;;;;;7.28;2.10;;;19.80;95.00;;;;;;5061192;28;20044;-69
2022/07/02 10:47:05;;;;;;;9.15;2.40;;;;;;;;;;5060360;28;20107;-69
2022/07/02 10:49:32;;;;;;;10.77;2.30;;;21.10;94.90;;;;;;5053785;28;20036;-68
2022/07/02 10:51:58;;;;;;;6.75;2.20;;;21.60;94.90;;;;;;5052549;28;20047;-68
2022/07/02 10:54:31;;;;;;;6.38;2.22;;;20.60;94.50;;;;;;5052043;28;20432;-68
2022/07/02 10:56:57;;;;;;;11.93;2.38;;;21.20;95.00;;;;;;5070526;28;20071;-69
2022/07/02 10:59:25;;;;;;;4.90;2.05;;;21.40;95.00;;;;;;5073326;28;20417;-69
2022/07/02 11:02:05;;;;;;;5.30;1.98;;;20.50;94.30;;;;;;5072604;28;20052;-69
2022/07/02 11:04:32;;;;;;;9.90;2.00;;;20.80;93.60;;;;;;5072174;28;20043;-69
2022/07/02 11:07:09;;;;;;;7.30;2.28;;;21.80;93.90;;;;;;5071861;28;20454;-70
2022/07/02 11:09:50;;;;;;;6.43;2.20;;;21.90;87.20;;;;;;5051989;28;20401;-73
2022/07/02 11:12:26;;;;;;;11.30;2.30;;;21.60;92.90;;;;;;5061840;28;20068;-70
2022/07/02 11:14:56;;;;;;;11.10;2.20;;;22.30;85.80;;;;;;5069983;28;20564;-70
2022/07/02 11:17:24;;;;;;;8.00;2.40;;;22.10;92.20;;;;;;5061698;28;20045;-70
2022/07/02 11:19:54;;;;;;;27.83;2.40;;;22.90;92.10;;;;;;5069730;28;20489;-69
2022/07/02 11:22:21;;;;;;;9.48;2.80;;;;;;;;;;5061459;28;20545;-69
2022/07/02 11:24:47;;;;;;;8.85;2.85;;;22.30;91.20;;;;;;5053220;28;20121;-69
2022/07/02 11:27:14;;;;;;;11.57;2.38;;;22.10;90.90;;;;;;5062486;28;20037;-69
2022/07/02 11:29:40;;;;;;;10.35;2.80;;;22.00;89.50;;;;;;5051159;28;20079;-69
2022/07/02 11:32:06;;;;;;;10.35;2.45;;;22.60;90.50;;;;;;5066567;28;20072;-68
2022/07/02 11:34:31;;;;;;;8.00;2.38;;;22.50;88.60;;;;;;5070250;28;20091;-69
2022/07/02 11:36:58;;;;;;;13.07;2.28;;;;;;;;;;5065926;28;20099;-68
2022/07/02 11:39:25;;;;;;;7.03;2.33;;;22.40;89.20;;;;;;5069863;28;20071;-68
2022/07/02 11:41:51;;;;;;;12.13;2.28;;;23.10;91.50;;;;;;5068042;28;20401;-69
2022/07/02 11:44:22;;;;;;;8.02;2.65;;;22.40;84.90;;;;;;5059886;28;20101;-68
2022/07/02 11:46:53;;;;;;;10.38;2.42;;;22.70;91.40;;;;;;5069881;28;20028;-68
2022/07/02 11:49:22;;;;;;;7.13;2.40;;;22.60;91.30;;;;;;5067915;28;20047;-70
2022/07/02 11:51:49;;;;;;;8.95;2.40;;;22.60;91.70;;;;;;5056727;28;20037;-70
2022/07/02 11:54:15;;;;;;;6.20;1.92;;;22.50;91.90;;;;;;5068709;28;20390;-70
2022/07/02 11:56:44;;;;;;;11.23;2.50;;;21.30;91.20;;;;;;5058972;28;20045;-70
2022/07/02 11:59:15;;;;;;;7.82;1.83;;;22.50;90.50;;;;;;5066152;28;20053;-69
2022/07/02 12:01:43;;;;;;;10.47;2.17;;;22.00;84.70;;;;;;5056195;28;20045;-70
2022/07/02 12:04:14;;;;;;;12.98;2.30;;;21.70;85.50;;;;;;5068467;28;20051;-70
2022/07/02 12:06:43;;;;;;;7.68;2.65;;;21.90;91.30;;;;;;5058946;28;20040;-70
2022/07/02 12:09:11;;;;;;;6.72;2.38;;;22.10;83.80;;;;;;5061768;28;20037;-70
2022/07/02 12:11:42;;;;;;;7.85;2.20;;;22.40;91.50;;;;;;5069485;28;20056;-69
2022/07/02 12:14:10;;;;;;;10.07;2.08;;;22.70;91.40;;;;;;5055831;28;20392;-68
2022/07/02 12:16:39;;;;;;;7.05;2.15;;;22.20;91.00;;;;;;5057875;28;20041;-68
2022/07/02 12:19:13;;;;;;;9.20;2.75;;;21.80;81.10;;;;;;5054857;28;20048;-68
2022/07/02 12:21:43;;;;;;;5.85;2.20;;;22.30;91.00;;;;;;5069886;28;20071;-68
2022/07/02 12:24:22;;;;;;;9.45;1.85;;;21.90;90.60;;;;;;5066970;28;20503;-68
2022/07/02 12:26:57;;;;;;;20.05;9.52;;;21.60;91.50;;;;;;5042415;28;20037;-68
2022/07/02 12:32:12;;;;;;;7.70;2.28;;;22.10;84.60;;;;;;5071639;28;20106;-68
2022/07/02 12:34:42;;;;;;;9.25;2.40;;;21.70;90.80;;;;;;5054826;28;20079;-68
2022/07/02 12:37:27;;;;;;;9.90;2.40;;;23.40;90.70;;;;;;5058876;28;20107;-68
2022/07/02 12:39:59;;;;;;;7.28;2.03;;;23.00;80.90;;;;;;5052817;28;20064;-68
2022/07/02 12:42:26;;;;;;;6.40;1.88;;;23.20;90.40;;;;;;5055017;28;20120;-68
2022/07/02 12:44:56;;;;;;;11.00;1.92;;;23.70;89.80;;;;;;5054665;28;20045;-68
2022/07/02 12:47:42;;;;;;;9.20;1.80;;;23.40;89.10;;;;;;5053854;28;20045;-68
2022/07/02 12:50:13;;;;;;;4.43;1.80;;;23.00;88.50;;;;;;5054391;28;20064;-68
2022/07/02 12:52:49;;;;;;;4.43;2.00;;;24.20;88.20;;;;;;5061594;28;20048;-68
2022/07/02 12:55:29;;;;;;;6.75;2.00;;;23.60;87.50;;;;;;5074133;28;20900;-68
2022/07/02 12:57:57;;;;;;;4.65;1.75;;;23.10;87.00;;;;;;5071961;28;20041;-68
2022/07/02 13:00:24;;;;;;;7.28;1.75;;;24.20;87.30;;;;;;5054383;28;20045;-68
2022/07/02 13:03:07;;;;;;;5.93;1.65;;;24.00;86.10;;;;;;5065581;28;20070;-68
2022/07/02 13:05:36;;;;;;;8.25;2.30;;;24.10;86.30;;;;;;5056678;28;20033;-68
2022/07/02 13:08:02;;;;;;;7.20;1.90;;;23.80;85.60;;;;;;5059598;28;20033;-69
2022/07/02 13:10:28;;;;;;;5.18;2.30;;;23.10;78.60;;;;;;5057295;28;20048;-69
2022/07/02 13:12:54;;;;;;;7.55;1.92;;;23.50;75.40;;;;;;5053929;28;20112;-68
2022/07/02 13:15:20;;;;;;;9.40;1.77;;;24.40;83.40;;;;;;5053998;28;20048;-68
2022/07/02 13:17:46;;;;;;;6.35;1.60;;;23.90;83.50;;;;;;5073215;28;20070;-69
2022/07/02 13:20:12;;;;;;;7.30;1.67;;;24.50;83.10;;;;;;5073667;28;20051;-69
2022/07/02 13:22:39;;;;;;;11.52;2.38;;;24.50;84.00;;;;;;5063450;28;20047;-68
2022/07/02 13:25:06;;;;;;;6.85;2.10;;;23.90;73.70;;;;;;5057402;28;20124;-68
2022/07/02 13:27:32;;;;;;;6.22;1.83;;;23.90;83.50;;;;;;5057500;28;20119;-68